createdAt,value
2022-08-28T00:01:10.943Z,63.90
2022-08-28T00:04:14.010Z,63.62
2022-08-28T00:07:17.175Z,63.58
2022-08-28T00:10:22.727Z,63.62
2022-08-28T00:13:26.346Z,63.57
2022-08-28T00:16:30.563Z,63.62
2022-08-28T00:19:38.498Z,63.56
2022-08-28T00:22:42.761Z,63.53
2022-08-28T00:25:47.239Z,63.90
2022-08-28T00:28:49.360Z,63.61
2022-08-28T00:31:52.599Z,63.70
2022-08-28T00:34:55.622Z,63.68
2022-08-28T00:37:58.641Z,63.90
2022-08-28T00:41:04.934Z,63.80
2022-08-28T00:44:12.718Z,63.93
2022-08-28T00:47:15.696Z,63.90
2022-08-28T00:50:23.965Z,63.75
2022-08-28T00:53:27.111Z,63.69
2022-08-28T00:56:38.829Z,63.58
2022-08-28T00:59:41.984Z,63.81
2022-08-28T01:02:45.042Z,63.49
2022-08-28T01:05:49.282Z,63.85
2022-08-28T01:08:53.843Z,63.52
2022-08-28T01:12:03.174Z,63.78
2022-08-28T01:15:13.944Z,63.62
2022-08-28T01:18:17.812Z,63.64
2022-08-28T01:21:29.310Z,63.37
2022-08-28T01:24:35.576Z,63.44
2022-08-28T01:27:41.841Z,63.38
2022-08-28T01:30:48.647Z,63.67
2022-08-28T01:33:52.541Z,63.71
2022-08-28T01:36:55.673Z,63.64
2022-08-28T01:40:03.330Z,63.64
2022-08-28T01:43:12.574Z,63.48
2022-08-28T01:46:15.673Z,63.74
2022-08-28T01:49:19.209Z,63.42
2022-08-28T01:52:24.138Z,63.44
2022-08-28T01:55:30.961Z,63.46
2022-08-28T01:58:38.285Z,63.35
2022-08-28T02:01:43.005Z,63.54
2022-08-28T02:04:48.238Z,63.37
2022-08-28T02:07:52.102Z,63.38
2022-08-28T02:10:56.490Z,63.36
2022-08-28T02:14:00.963Z,63.12
2022-08-28T02:17:03.968Z,63.45
2022-08-28T02:20:08.031Z,63.38
2022-08-28T02:23:11.267Z,63.16
2022-08-28T02:26:16.195Z,63.33
2022-08-28T02:29:19.282Z,63.21
2022-08-28T02:32:22.441Z,63.05
2022-08-28T02:35:25.735Z,63.04
2022-08-28T02:38:29.591Z,63.28
2022-08-28T02:41:35.473Z,63.28
2022-08-28T02:44:38.518Z,63.06
2022-08-28T02:47:43.462Z,63.20
2022-08-28T02:50:47.171Z,63.11
2022-08-28T02:53:52.111Z,62.94
2022-08-28T02:56:57.071Z,63.02
2022-08-28T03:00:00.043Z,62.80
2022-08-28T03:03:03.620Z,63.08
2022-08-28T03:06:07.578Z,62.89
2022-08-28T03:09:10.726Z,62.83
2022-08-28T03:12:17.007Z,62.90
2022-08-28T03:15:20.714Z,63.04
2022-08-28T03:18:24.512Z,62.75
2022-08-28T03:21:28.538Z,62.99
2022-08-28T03:24:31.542Z,62.72
2022-08-28T03:27:35.990Z,62.74
2022-08-28T03:30:39.123Z,62.93
2022-08-28T03:33:43.023Z,62.84
2022-08-28T03:36:46.254Z,62.55
2022-08-28T03:39:49.298Z,62.84
2022-08-28T03:42:53.829Z,62.80
2022-08-28T03:45:59.370Z,62.56
2022-08-28T03:49:03.703Z,62.62
2022-08-28T03:52:06.950Z,62.54
2022-08-28T03:55:12.313Z,62.50
2022-08-28T03:58:18.970Z,62.58
2022-08-28T04:01:22.798Z,62.38
2022-08-28T04:04:25.801Z,62.44
2022-08-28T04:07:28.874Z,62.39
2022-08-28T04:10:33.092Z,62.13
2022-08-28T04:13:37.527Z,62.33
2022-08-28T04:16:41.510Z,62.40
2022-08-28T04:19:45.110Z,62.09
2022-08-28T04:22:48.401Z,62.05
2022-08-28T04:25:58.362Z,61.97
2022-08-28T04:29:02.746Z,61.90
2022-08-28T04:32:05.855Z,61.90
2022-08-28T04:35:12.033Z,62.15
2022-08-28T04:38:15.250Z,62.13
2022-08-28T04:41:18.778Z,61.94
2022-08-28T04:44:23.130Z,61.71
2022-08-28T04:47:26.130Z,61.94
2022-08-28T04:50:29.102Z,61.94
2022-08-28T04:53:32.879Z,62.05
2022-08-28T04:56:35.857Z,61.58
2022-08-28T04:59:41.932Z,61.68
2022-08-28T05:02:45.022Z,62.02
2022-08-28T05:05:51.734Z,61.72
2022-08-28T05:08:55.297Z,61.80
2022-08-28T05:11:58.581Z,62.14
2022-08-28T05:15:03.073Z,61.74
2022-08-28T05:18:06.280Z,61.82
2022-08-28T05:21:14.510Z,62.08
2022-08-28T05:24:18.129Z,61.97
2022-08-28T05:27:21.503Z,61.92
2022-08-28T05:30:25.929Z,62.02
2022-08-28T05:33:28.965Z,62.08
2022-08-28T05:36:34.367Z,61.84
2022-08-28T05:39:37.345Z,61.90
2022-08-28T05:42:40.275Z,61.89
2022-08-28T05:45:44.848Z,62.14
2022-08-28T05:48:48.679Z,61.91
2022-08-28T05:51:52.444Z,61.76
2022-08-28T05:54:55.459Z,61.77
2022-08-28T05:58:18.682Z,62.02
2022-08-28T06:01:28.219Z,61.85
2022-08-28T06:04:32.048Z,62.08
2022-08-28T06:07:35.162Z,61.79
2022-08-28T06:10:44.750Z,61.77
2022-08-28T06:13:50.834Z,62.12
2022-08-28T06:16:57.014Z,61.73
2022-08-28T06:19:59.963Z,61.84
2022-08-28T06:23:02.909Z,61.93
2022-08-28T06:26:07.309Z,61.85
2022-08-28T06:29:12.518Z,61.79
2022-08-28T06:32:17.036Z,61.78
2022-08-28T06:35:20.174Z,61.40
2022-08-28T06:38:25.493Z,61.63
2022-08-28T06:41:32.083Z,61.52
2022-08-28T06:44:35.146Z,61.49
2022-08-28T06:47:39.745Z,61.20
2022-08-28T06:50:46.784Z,61.32
2022-08-28T06:53:49.919Z,61.67
2022-08-28T06:56:54.192Z,61.63
2022-08-28T06:59:57.414Z,61.67
2022-08-28T07:03:02.196Z,61.51
2022-08-28T07:06:07.471Z,61.07
2022-08-28T07:09:12.437Z,61.00
2022-08-28T07:12:15.526Z,60.95
2022-08-28T07:15:19.237Z,61.10
2022-08-28T07:18:23.742Z,61.01
2022-08-28T07:21:27.428Z,60.92
2022-08-28T07:24:30.535Z,60.91
2022-08-28T07:27:33.495Z,61.02
2022-08-28T07:30:36.505Z,60.89
2022-08-28T07:33:42.007Z,61.24
2022-08-28T07:36:45.361Z,61.07
2022-08-28T07:39:48.502Z,61.13
2022-08-28T07:43:09.149Z,61.11
2022-08-28T07:46:12.984Z,61.14
2022-08-28T07:49:17.643Z,61.01
2022-08-28T07:52:20.600Z,61.14
2022-08-28T07:55:23.610Z,61.24
2022-08-28T07:58:27.036Z,61.14
2022-08-28T08:01:31.478Z,61.10
2022-08-28T08:04:36.249Z,60.85
2022-08-28T08:07:39.933Z,61.01
2022-08-28T08:10:46.715Z,61.08
2022-08-28T08:13:50.949Z,60.81
2022-08-28T08:16:54.153Z,60.76
2022-08-28T08:19:58.558Z,61.14
2022-08-28T08:23:01.583Z,61.03
2022-08-28T08:26:07.027Z,60.79
2022-08-28T08:29:10.119Z,60.76
2022-08-28T08:32:13.585Z,60.83
2022-08-28T08:35:18.005Z,60.67
2022-08-28T08:38:21.117Z,60.77
2022-08-28T08:41:30.482Z,60.34
2022-08-28T08:44:35.764Z,60.91
2022-08-28T08:47:44.652Z,60.71
2022-08-28T08:50:49.782Z,60.34
2022-08-28T08:53:59.831Z,60.94
2022-08-28T08:57:03.793Z,60.75
2022-08-28T09:00:12.265Z,60.57
2022-08-28T09:03:23.865Z,60.42
2022-08-28T09:06:40.702Z,60.61
2022-08-28T09:09:53.333Z,60.67
2022-08-28T09:13:07.782Z,60.77
2022-08-28T09:16:22.136Z,61.00
2022-08-28T09:19:25.269Z,61.18
2022-08-28T09:22:30.137Z,61.05
2022-08-28T09:25:56.605Z,61.21
2022-08-28T09:29:06.077Z,61.35
2022-08-28T09:32:23.689Z,61.05
2022-08-28T09:35:29.341Z,61.18
2022-08-28T09:38:33.778Z,61.26
2022-08-28T09:41:57.487Z,61.23
2022-08-28T09:45:09.175Z,60.99
2022-08-28T09:48:24.186Z,60.83
2022-08-28T09:51:31.353Z,60.66
2022-08-28T09:54:40.891Z,61.15
2022-08-28T09:57:47.534Z,60.91
2022-08-28T10:00:54.854Z,61.15
2022-08-28T10:04:08.540Z,60.82
2022-08-28T10:07:18.433Z,61.23
2022-08-28T10:10:31.559Z,61.16
2022-08-28T10:13:40.389Z,60.80
2022-08-28T10:16:53.667Z,61.00
2022-08-28T10:20:04.519Z,60.98
2022-08-28T10:23:19.845Z,61.29
2022-08-28T10:26:34.688Z,61.37
2022-08-28T10:29:49.625Z,61.17
2022-08-28T10:33:15.534Z,60.62
2022-08-28T10:36:33.958Z,60.83
2022-08-28T10:39:48.789Z,60.60
2022-08-28T10:43:02.041Z,60.57
2022-08-28T10:46:07.350Z,59.76
2022-08-28T10:49:17.504Z,60.31
2022-08-28T10:52:25.278Z,61.12
2022-08-28T10:55:34.705Z,60.48
2022-08-28T10:58:42.326Z,61.00
2022-08-28T11:01:47.334Z,60.75
2022-08-28T11:04:53.260Z,60.35
2022-08-28T11:08:04.098Z,60.54
2022-08-28T11:11:13.222Z,60.80
2022-08-28T11:14:27.749Z,61.40
2022-08-28T11:17:42.085Z,60.75
2022-08-28T11:20:57.995Z,60.75
2022-08-28T11:24:09.314Z,61.01
2022-08-28T11:27:21.978Z,61.24
2022-08-28T11:30:35.580Z,60.08
2022-08-28T11:33:41.467Z,59.55
2022-08-28T11:37:03.527Z,60.13
2022-08-28T11:40:19.257Z,59.67
2022-08-28T11:43:39.546Z,59.41
2022-08-28T11:46:46.150Z,59.49
2022-08-28T11:49:49.282Z,59.00
2022-08-28T11:53:46.105Z,59.80
2022-08-28T11:57:00.331Z,59.34
2022-08-28T12:00:08.329Z,60.01
2022-08-28T12:03:15.564Z,59.36
2022-08-28T12:06:54.444Z,59.35
2022-08-28T12:10:01.737Z,59.22
2022-08-28T12:16:12.295Z,59.08
2022-08-28T12:19:29.305Z,59.71
2022-08-28T12:22:49.918Z,59.19
2022-08-28T12:26:01.655Z,59.50
2022-08-28T12:29:08.959Z,59.43
2022-08-28T12:32:26.670Z,58.94
2022-08-28T12:35:31.422Z,59.46
2022-08-28T12:38:36.311Z,59.19
2022-08-28T12:41:39.646Z,59.29
2022-08-28T12:44:42.683Z,59.43
2022-08-28T12:47:48.451Z,59.90
2022-08-28T12:50:59.470Z,58.92
2022-08-28T12:54:08.289Z,58.67
2022-08-28T12:57:14.594Z,59.55
2022-08-28T13:00:20.235Z,58.75
2022-08-28T13:03:23.406Z,58.69
2022-08-28T13:06:29.637Z,59.32
2022-08-28T13:09:34.547Z,58.40
2022-08-28T13:12:54.745Z,58.49
2022-08-28T13:16:02.032Z,58.72
2022-08-28T13:19:26.262Z,58.13
2022-08-28T13:22:34.911Z,58.57
2022-08-28T13:25:39.767Z,59.04
2022-08-28T13:28:44.370Z,58.57
2022-08-28T13:31:57.220Z,58.68
2022-08-28T13:35:12.949Z,58.34
2022-08-28T13:38:18.570Z,58.43
2022-08-28T13:41:23.036Z,58.28
2022-08-28T13:44:32.113Z,58.08
2022-08-28T13:47:35.135Z,58.26
2022-08-28T13:50:40.114Z,58.50
2022-08-28T13:53:43.156Z,58.48
2022-08-28T13:56:48.609Z,58.54
2022-08-28T13:59:55.538Z,58.61
2022-08-28T14:03:16.196Z,58.62
2022-08-28T14:06:19.274Z,59.14
2022-08-28T14:09:27.062Z,58.75
2022-08-28T14:12:33.082Z,58.37
2022-08-28T14:15:36.752Z,58.30
2022-08-28T14:18:39.834Z,58.90
2022-08-28T14:21:42.978Z,59.22
2022-08-28T14:24:46.861Z,59.06
2022-08-28T14:27:51.244Z,59.17
2022-08-28T14:30:56.161Z,59.03
2022-08-28T14:33:59.547Z,59.30
2022-08-28T14:37:02.779Z,58.58
2022-08-28T14:40:07.342Z,58.07
2022-08-28T14:43:12.874Z,58.52
2022-08-28T14:46:16.899Z,57.91
2022-08-28T14:49:21.113Z,57.96
2022-08-28T14:52:24.641Z,58.19
2022-08-28T14:55:28.002Z,58.24
2022-08-28T14:58:34.110Z,57.71
2022-08-28T15:01:40.604Z,58.38
2022-08-28T15:04:44.079Z,57.86
2022-08-28T15:07:47.016Z,58.58
2022-08-28T15:10:51.089Z,58.25
2022-08-28T15:13:58.022Z,58.09
2022-08-28T15:17:01.063Z,58.07
2022-08-28T15:20:05.857Z,57.40
2022-08-28T15:23:09.349Z,57.00
2022-08-28T15:26:15.585Z,56.66
2022-08-28T15:29:20.110Z,56.67
2022-08-28T15:32:23.500Z,56.66
2022-08-28T15:35:26.582Z,57.39
2022-08-28T15:38:49.665Z,55.34
2022-08-28T15:41:51.965Z,56.80
2022-08-28T15:44:57.071Z,55.21
2022-08-28T15:48:00.727Z,55.57
2022-08-28T15:51:03.729Z,55.78
2022-08-28T15:54:07.254Z,54.35
2022-08-28T15:57:10.267Z,53.94
2022-08-28T16:00:16.237Z,54.89
2022-08-28T16:03:19.390Z,53.81
2022-08-28T16:06:23.864Z,53.80
2022-08-28T16:09:26.909Z,53.95
2022-08-28T16:12:30.218Z,53.40
2022-08-28T16:15:35.175Z,54.36
2022-08-28T16:18:38.417Z,53.97
2022-08-28T16:21:42.617Z,53.43
2022-08-28T16:24:45.699Z,53.65
2022-08-28T16:27:48.716Z,54.43
2022-08-28T16:30:53.694Z,54.61
2022-08-28T16:33:56.915Z,54.01
2022-08-28T16:37:00.090Z,54.31
2022-08-28T16:40:03.809Z,54.25
2022-08-28T16:43:06.953Z,54.29
2022-08-28T16:46:13.398Z,53.76
2022-08-28T16:49:16.679Z,54.46
2022-08-28T16:52:20.067Z,54.08
2022-08-28T16:55:23.162Z,54.45
2022-08-28T16:58:26.298Z,55.04
2022-08-28T17:01:30.781Z,54.90
2022-08-28T17:04:33.890Z,54.94
2022-08-28T17:07:37.049Z,55.36
2022-08-28T17:10:40.137Z,55.75
2022-08-28T17:13:43.267Z,55.54
2022-08-28T17:16:47.721Z,56.02
2022-08-28T17:19:50.734Z,55.70
2022-08-28T17:22:52.750Z,55.83
2022-08-28T17:25:55.797Z,55.98
2022-08-28T17:28:58.822Z,56.01
2022-08-28T17:32:05.267Z,55.93
2022-08-28T17:35:09.286Z,55.82
2022-08-28T17:38:12.780Z,55.85
2022-08-28T17:41:15.922Z,56.27
2022-08-28T17:44:19.012Z,56.58
2022-08-28T17:47:27.408Z,57.36
2022-08-28T17:50:33.821Z,58.96
2022-08-28T17:53:37.238Z,59.90
2022-08-28T17:56:40.369Z,58.99
2022-08-28T17:59:43.984Z,58.81
2022-08-28T18:02:51.813Z,58.56
2022-08-28T18:05:54.849Z,58.67
2022-08-28T18:08:58.786Z,58.39
2022-08-28T18:12:03.077Z,58.42
2022-08-28T18:15:08.326Z,58.60
2022-08-28T18:18:13.847Z,58.39
2022-08-28T18:21:17.354Z,58.76
2022-08-28T18:24:20.459Z,58.47
2022-08-28T18:27:23.861Z,58.45
2022-08-28T18:30:28.206Z,58.46
2022-08-28T18:33:33.440Z,58.19
2022-08-28T18:36:36.694Z,58.10
2022-08-28T18:39:40.843Z,57.99
2022-08-28T18:42:45.378Z,57.88
2022-08-28T18:45:48.621Z,58.28
2022-08-28T18:48:53.897Z,58.27
2022-08-28T18:51:57.009Z,58.30
2022-08-28T18:55:02.484Z,58.34
2022-08-28T18:58:08.175Z,58.34
2022-08-28T19:01:16.009Z,58.17
2022-08-28T19:04:20.835Z,58.09
2022-08-28T19:07:23.834Z,58.26
2022-08-28T19:10:34.051Z,58.61
2022-08-28T19:13:38.555Z,58.32
2022-08-28T19:16:41.569Z,58.42
2022-08-28T19:19:45.990Z,58.29
2022-08-28T19:22:49.745Z,58.37
2022-08-28T19:25:52.763Z,57.97
2022-08-28T19:28:56.899Z,57.74
2022-08-28T19:31:59.982Z,57.90
2022-08-28T19:35:04.834Z,57.66
2022-08-28T19:38:07.971Z,57.38
2022-08-28T19:41:12.818Z,57.39
2022-08-28T19:44:16.047Z,57.44
2022-08-28T19:47:19.240Z,57.62
2022-08-28T19:50:23.802Z,57.19
2022-08-28T19:53:26.842Z,57.17
2022-08-28T19:56:31.573Z,57.54
2022-08-28T19:59:35.584Z,57.18
2022-08-28T20:02:38.643Z,57.34
2022-08-28T20:05:44.095Z,57.46
2022-08-28T20:08:47.124Z,57.25
2022-08-28T20:11:50.533Z,57.58
2022-08-28T20:14:53.627Z,57.59
2022-08-28T20:17:57.766Z,57.42
2022-08-28T20:21:02.178Z,57.54
2022-08-28T20:24:05.774Z,57.50
2022-08-28T20:27:08.955Z,57.25
2022-08-28T20:30:12.881Z,57.40
2022-08-28T20:33:15.902Z,57.26
2022-08-28T20:36:21.539Z,57.68
2022-08-28T20:39:24.980Z,57.29
2022-08-28T20:42:31.685Z,57.68
2022-08-28T20:45:34.926Z,57.25
2022-08-28T20:48:38.304Z,57.63
2022-08-28T20:52:01.260Z,57.52
2022-08-28T20:55:05.398Z,57.40
2022-08-28T20:58:08.455Z,57.07
2022-08-28T21:01:13.985Z,57.46
2022-08-28T21:04:17.018Z,57.16
2022-08-28T21:07:23.296Z,57.94
2022-08-28T21:10:26.325Z,58.88
2022-08-28T21:13:29.511Z,59.33
2022-08-28T21:16:32.621Z,59.18
2022-08-28T21:19:40.138Z,59.37
2022-08-28T21:22:45.162Z,59.01
2022-08-28T21:25:48.486Z,58.66
2022-08-28T21:28:52.251Z,58.16
2022-08-28T21:31:55.322Z,57.89
2022-08-28T21:34:58.508Z,57.51
2022-08-28T21:38:03.007Z,57.42
2022-08-28T21:41:09.638Z,57.19
2022-08-28T21:44:14.112Z,57.54
2022-08-28T21:47:17.438Z,57.18
2022-08-28T21:50:20.847Z,57.19
2022-08-28T21:53:25.548Z,57.02
2022-08-28T21:56:29.150Z,57.13
2022-08-28T21:59:37.861Z,56.34
2022-08-28T22:02:41.166Z,56.16
2022-08-28T22:05:44.794Z,56.30
2022-08-28T22:08:49.877Z,55.98
2022-08-28T22:11:52.887Z,55.99
2022-08-28T22:14:55.922Z,55.77
2022-08-28T22:17:58.945Z,55.56
2022-08-28T22:21:19.906Z,55.29
2022-08-28T22:24:24.656Z,55.32
2022-08-28T22:27:27.814Z,55.23
2022-08-28T22:30:30.909Z,55.33
2022-08-28T22:33:36.266Z,55.02
2022-08-28T22:36:39.314Z,54.87
2022-08-28T22:39:44.067Z,54.84
2022-08-28T22:42:47.479Z,54.75
2022-08-28T22:45:50.594Z,54.38
2022-08-28T22:48:53.842Z,54.35
2022-08-28T22:51:56.813Z,54.34
2022-08-28T22:55:01.210Z,54.33
2022-08-28T22:58:06.342Z,54.54
2022-08-28T23:01:12.331Z,54.43
2022-08-28T23:04:17.071Z,54.19
2022-08-28T23:07:20.181Z,54.33
2022-08-28T23:10:42.191Z,54.28
2022-08-28T23:13:47.732Z,54.30
2022-08-28T23:16:52.078Z,54.05
2022-08-28T23:19:55.270Z,54.11
2022-08-28T23:22:58.414Z,54.35
2022-08-28T23:26:02.926Z,54.36
2022-08-28T23:29:06.133Z,54.30
2022-08-28T23:32:09.322Z,54.04
2022-08-28T23:35:16.342Z,54.58
2022-08-28T23:38:20.221Z,54.62
2022-08-28T23:41:24.907Z,54.45
2022-08-28T23:44:28.671Z,54.16
2022-08-28T23:47:31.738Z,53.95
2022-08-28T23:50:34.994Z,54.20
2022-08-28T23:53:41.274Z,53.94
2022-08-28T23:56:45.749Z,53.84
2022-08-28T23:59:48.884Z,53.52
